Time;durP1;ratioP1;P1;durP2;ratioP2;P2;SDS_P1;SDS_P2;PMS_P1;PMS_P2;Temp;Humidity;BMP_temperature;BMP_pressure;BME280_temperature;BME280_humidity;BME280_pressure;Samples;Min_cycle;Max_cycle;Signal;HPM_P1;HPM_P2
2024/01/13 00:00:54;;;;;;;1.70;1.60;;;3.00;99.90;;;;;;5081717;28;20198;-48
2024/01/13 00:03:21;;;;;;;5.10;1.87;;;3.00;99.90;;;;;;5080155;28;20194;-52
2024/01/13 00:05:49;;;;;;;3.93;2.13;;;3.00;99.90;;;;;;5080553;28;20212;-51
2024/01/13 00:08:16;;;;;;;6.63;1.63;;;3.00;99.90;;;;;;5071923;28;20222;-50
2024/01/13 00:10:43;;;;;;;3.60;1.47;;;3.00;99.90;;;;;;5071965;28;20255;-48
2024/01/13 00:13:09;;;;;;;3.00;1.83;;;3.00;99.90;;;;;;5048079;28;20186;-51
2024/01/13 00:15:37;;;;;;;5.53;1.80;;;3.10;99.90;;;;;;5082885;28;20255;-49
2024/01/13 00:18:04;;;;;;;4.97;2.37;;;3.00;99.90;;;;;;5079722;28;20194;-50
2024/01/13 00:20:31;;;;;;;3.93;1.70;;;3.00;99.90;;;;;;5083026;28;20315;-47
2024/01/13 00:22:59;;;;;;;2.87;1.87;;;3.00;99.90;;;;;;5067149;28;20915;-50
2024/01/13 00:25:26;;;;;;;7.53;2.10;;;3.00;99.90;;;;;;5072534;28;20236;-47
2024/01/13 00:27:53;;;;;;;5.70;2.20;;;3.00;99.90;;;;;;5050166;28;20239;-48
2024/01/13 00:30:20;;;;;;;4.67;2.10;;;3.10;99.90;;;;;;5077658;28;20693;-49
2024/01/13 00:32:47;;;;;;;5.63;1.93;;;3.00;99.90;;;;;;5080143;28;20194;-50
2024/01/13 00:35:14;;;;;;;5.70;1.73;;;3.00;99.90;;;;;;5080524;28;20239;-51
2024/01/13 00:37:41;;;;;;;13.27;2.17;;;3.00;99.90;;;;;;5072865;28;20225;-53
2024/01/13 00:40:10;;;;;;;3.77;1.73;;;3.00;99.90;;;;;;5068383;28;20247;-48
2024/01/13 00:42:37;;;;;;;2.33;1.40;;;3.00;99.90;;;;;;5082094;28;20660;-52
2024/01/13 00:45:04;;;;;;;2.83;1.20;;;3.10;99.90;;;;;;5049924;28;20715;-50
2024/01/13 00:47:31;;;;;;;2.67;1.60;;;3.10;99.90;;;;;;5082808;28;20218;-49
2024/01/13 00:49:58;;;;;;;3.47;1.10;;;3.10;99.90;;;;;;5075643;28;20254;-50
2024/01/13 00:52:26;;;;;;;4.63;1.10;;;3.10;99.90;;;;;;5073962;28;20198;-48
2024/01/13 00:54:54;;;;;;;2.77;1.40;;;3.10;99.90;;;;;;5075526;28;20222;-50
2024/01/13 00:57:22;;;;;;;3.63;1.03;;;3.10;99.90;;;;;;5080697;28;20221;-52
2024/01/13 00:59:49;;;;;;;4.53;1.27;;;3.00;99.90;;;;;;5041103;28;20202;-50
2024/01/13 01:02:16;;;;;;;5.97;1.73;;;3.10;99.90;;;;;;5075831;28;20255;-51
2024/01/13 01:04:43;;;;;;;3.70;1.13;;;3.00;99.90;;;;;;5066855;28;20194;-50
2024/01/13 01:07:10;;;;;;;4.50;1.00;;;3.00;99.90;;;;;;5073156;28;20275;-47
2024/01/13 01:09:36;;;;;;;4.50;1.20;;;3.00;99.90;;;;;;5078346;28;20233;-48
2024/01/13 01:12:04;;;;;;;5.60;1.40;;;3.00;99.90;;;;;;5072973;28;20205;-52
2024/01/13 01:14:32;;;;;;;6.50;1.67;;;3.00;99.90;;;;;;5077096;28;20189;-47
2024/01/13 01:16:59;;;;;;;3.97;1.07;;;2.90;99.90;;;;;;5052482;28;20721;-47
2024/01/13 01:19:26;;;;;;;3.63;1.10;;;2.90;99.90;;;;;;5059115;28;20205;-51
2024/01/13 01:21:53;;;;;;;3.70;1.40;;;3.00;99.90;;;;;;5077288;28;20198;-49
2024/01/13 01:24:19;;;;;;;5.40;1.37;;;2.90;99.90;;;;;;5075333;28;20247;-51
2024/01/13 01:26:46;;;;;;;1.87;1.23;;;3.00;99.90;;;;;;5078166;28;20225;-51
2024/01/13 01:29:13;;;;;;;2.90;1.50;;;2.90;99.90;;;;;;5081269;28;20190;-49
2024/01/13 01:31:41;;;;;;;4.60;1.10;;;2.90;99.90;;;;;;5047626;28;20265;-50
2024/01/13 01:34:08;;;;;;;3.83;1.20;;;3.00;99.90;;;;;;5068193;28;20259;-51
2024/01/13 01:36:35;;;;;;;5.90;1.20;;;3.00;99.90;;;;;;5071817;28;20213;-49
2024/01/13 01:39:02;;;;;;;5.70;2.40;;;3.00;99.90;;;;;;5079366;28;20202;-49
2024/01/13 01:41:28;;;;;;;4.63;1.70;;;3.00;99.90;;;;;;5069373;28;20217;-51
2024/01/13 01:43:55;;;;;;;1.83;1.27;;;3.00;99.90;;;;;;5081819;28;20197;-47
2024/01/13 01:46:24;;;;;;;4.07;1.53;;;3.00;99.90;;;;;;5053835;28;20233;-49
2024/01/13 01:48:57;;;;;;;3.83;1.87;;;3.00;99.90;;;;;;5069756;28;20198;-48
2024/01/13 01:51:25;;;;;;;8.53;2.13;;;3.00;99.90;;;;;;5069120;28;20202;-52
2024/01/13 01:53:52;;;;;;;3.63;1.63;;;3.00;99.90;;;;;;5082476;28;20209;-53
2024/01/13 01:56:24;;;;;;;4.90;1.40;;;3.00;99.90;;;;;;5078917;28;20236;-52
2024/01/13 01:58:53;;;;;;;3.03;1.70;;;3.00;99.90;;;;;;5084120;28;20217;-52
2024/01/13 02:01:20;;;;;;;2.50;1.50;;;3.10;99.90;;;;;;5076115;28;20182;-53
2024/01/13 02:03:48;;;;;;;3.07;1.83;;;3.00;99.90;;;;;;5053054;28;20202;-53
2024/01/13 02:06:17;;;;;;;3.23;1.97;;;3.10;99.90;;;;;;5076635;28;20236;-50
2024/01/13 02:08:45;;;;;;;4.37;1.97;;;3.00;99.90;;;;;;5079270;28;20852;-51
2024/01/13 02:11:13;;;;;;;5.57;2.30;;;3.00;99.90;;;;;;5082649;28;20613;-50
2024/01/13 02:13:40;;;;;;;7.80;3.47;;;3.00;99.90;;;;;;5072123;28;20201;-50
2024/01/13 02:16:08;;;;;;;6.67;3.93;;;3.00;99.90;;;;;;5069186;28;20217;-48
2024/01/13 02:18:35;;;;;;;8.93;4.27;;;3.00;99.90;;;;;;5051140;28;20209;-50
2024/01/13 02:21:02;;;;;;;7.73;4.37;;;3.10;99.90;;;;;;5082507;28;20223;-50
2024/01/13 02:23:30;;;;;;;7.90;3.83;;;3.10;99.90;;;;;;5072740;28;20261;-50
2024/01/13 02:25:57;;;;;;;5.97;3.60;;;3.10;99.90;;;;;;5083657;28;20217;-48
2024/01/13 02:28:24;;;;;;;7.43;3.53;;;3.10;99.90;;;;;;5067433;28;20612;-51
2024/01/13 02:30:51;;;;;;;7.33;2.80;;;3.00;99.90;;;;;;5079305;28;20283;-49
2024/01/13 02:33:18;;;;;;;6.40;2.77;;;3.10;99.90;;;;;;5070418;28;20194;-52
2024/01/13 02:35:44;;;;;;;2.80;2.17;;;3.10;99.90;;;;;;5067702;28;20206;-52
2024/01/13 02:38:11;;;;;;;4.63;2.70;;;3.10;99.90;;;;;;5076660;28;20194;-53
2024/01/13 02:40:39;;;;;;;8.57;2.90;;;3.10;99.90;;;;;;5080270;28;20911;-52
2024/01/13 02:43:06;;;;;;;4.97;3.07;;;3.10;99.90;;;;;;5077105;28;20194;-49
2024/01/13 02:45:33;;;;;;;7.67;3.40;;;3.00;99.90;;;;;;5070472;28;20914;-51
2024/01/13 02:48:03;;;;;;;6.90;3.63;;;3.00;99.90;;;;;;5083350;28;20628;-53
2024/01/13 02:50:30;;;;;;;3.80;2.93;;;3.10;99.90;;;;;;5051265;28;20973;-49
2024/01/13 02:52:57;;;;;;;8.63;3.00;;;3.10;99.90;;;;;;5084862;28;20194;-52
2024/01/13 02:55:24;;;;;;;4.43;3.07;;;3.10;99.90;;;;;;5077745;28;20270;-51
2024/01/13 02:57:52;;;;;;;3.80;2.57;;;3.00;99.90;;;;;;5076263;28;20286;-47
2024/01/13 03:00:19;;;;;;;6.10;2.37;;;3.00;99.90;;;;;;5074449;28;20296;-50
2024/01/13 03:02:46;;;;;;;5.00;2.20;;;3.00;99.90;;;;;;5082859;28;20186;-48
2024/01/13 03:05:13;;;;;;;3.20;1.83;;;3.00;99.90;;;;;;5054058;28;20694;-48
2024/01/13 03:07:39;;;;;;;2.23;1.87;;;3.00;99.90;;;;;;5081748;28;20234;-48
2024/01/13 03:10:08;;;;;;;3.53;1.67;;;3.10;99.90;;;;;;5076617;28;20186;-51
2024/01/13 03:12:35;;;;;;;3.93;1.87;;;3.00;99.90;;;;;;5076190;28;20186;-47
2024/01/13 03:15:05;;;;;;;3.10;1.70;;;3.00;99.90;;;;;;5079115;28;20560;-49
2024/01/13 03:17:31;;;;;;;1.87;1.43;;;3.00;99.90;;;;;;5080240;28;20210;-47
2024/01/13 03:19:58;;;;;;;1.70;1.27;;;3.10;99.90;;;;;;5055047;28;20247;-49
2024/01/13 03:22:25;;;;;;;5.20;1.50;;;3.10;99.90;;;;;;5078070;28;20205;-49
2024/01/13 03:24:52;;;;;;;2.37;1.70;;;3.10;99.90;;;;;;5075919;28;20570;-52
2024/01/13 03:27:18;;;;;;;1.97;1.50;;;3.10;99.90;;;;;;5079375;28;20221;-50
2024/01/13 03:29:45;;;;;;;3.47;1.80;;;3.10;99.90;;;;;;5074177;28;20217;-51
2024/01/13 03:32:13;;;;;;;7.20;1.70;;;3.10;99.90;;;;;;5083709;28;20198;-53
2024/01/13 03:34:40;;;;;;;2.03;1.50;;;3.10;99.90;;;;;;5052184;28;20206;-49
2024/01/13 03:37:07;;;;;;;2.27;1.93;;;3.10;99.90;;;;;;5078951;28;20833;-51
2024/01/13 03:39:34;;;;;;;3.87;1.93;;;3.20;99.90;;;;;;5068911;28;20892;-51
2024/01/13 03:42:01;;;;;;;3.70;1.93;;;3.10;99.90;;;;;;5083688;28;20228;-51
2024/01/13 03:44:28;;;;;;;2.63;1.53;;;3.20;99.90;;;;;;5080124;28;20652;-52
2024/01/13 03:46:54;;;;;;;4.40;1.80;;;3.10;99.90;;;;;;5075787;28;20278;-48
2024/01/13 03:49:23;;;;;;;2.60;1.90;;;3.10;99.90;;;;;;5062527;28;20202;-52
2024/01/13 03:51:49;;;;;;;4.80;2.07;;;3.10;99.90;;;;;;5069078;28;20629;-51
2024/01/13 03:54:16;;;;;;;2.43;1.77;;;3.20;99.90;;;;;;5077744;28;20198;-51
2024/01/13 03:56:43;;;;;;;3.47;2.07;;;3.20;99.90;;;;;;5081421;28;20278;-51
2024/01/13 03:59:12;;;;;;;4.23;2.20;;;3.20;99.90;;;;;;5081988;28;20198;-51
2024/01/13 04:01:39;;;;;;;3.83;1.90;;;3.20;99.90;;;;;;5072666;28;20206;-50
2024/01/13 04:04:06;;;;;;;3.73;1.83;;;3.10;99.90;;;;;;5080938;28;20247;-50
2024/01/13 04:06:39;;;;;;;2.33;1.53;;;3.20;99.90;;;;;;5038465;28;20360;-50
2024/01/13 04:09:06;;;;;;;2.57;1.47;;;3.20;99.90;;;;;;5080423;28;20203;-50
2024/01/13 04:11:33;;;;;;;3.27;1.50;;;3.20;99.90;;;;;;5078430;28;20193;-49
2024/01/13 04:14:00;;;;;;;2.13;1.43;;;3.20;99.90;;;;;;5076897;28;20544;-52
2024/01/13 04:16:27;;;;;;;3.47;1.60;;;3.20;99.90;;;;;;5069361;28;20226;-48
2024/01/13 04:18:53;;;;;;;1.40;1.30;;;3.10;99.90;;;;;;5081060;28;20196;-53
2024/01/13 04:21:20;;;;;;;2.33;1.53;;;3.20;99.90;;;;;;5055031;28;20676;-51
2024/01/13 04:23:48;;;;;;;2.20;1.60;;;3.20;99.90;;;;;;5073128;28;20198;-53
2024/01/13 04:26:15;;;;;;;2.40;1.30;;;3.20;99.90;;;;;;5075565;28;20930;-50
2024/01/13 04:28:42;;;;;;;1.40;1.30;;;3.10;99.90;;;;;;5076858;28;20542;-49
2024/01/13 04:31:09;;;;;;;1.67;1.43;;;3.20;99.90;;;;;;5080210;28;20194;-51
2024/01/13 04:33:36;;;;;;;2.70;1.20;;;3.10;99.90;;;;;;5066069;28;20214;-52
2024/01/13 04:36:03;;;;;;;1.87;1.47;;;3.10;99.90;;;;;;5076838;28;20218;-53
2024/01/13 04:38:30;;;;;;;4.53;1.63;;;3.20;99.90;;;;;;5051580;28;20968;-51
2024/01/13 04:40:58;;;;;;;2.57;1.77;;;3.20;99.90;;;;;;5081020;28;20193;-51
2024/01/13 04:43:25;;;;;;;3.37;2.53;;;3.20;99.90;;;;;;5079815;28;20194;-52
2024/01/13 04:45:51;;;;;;;2.33;1.83;;;3.20;99.90;;;;;;5069752;28;20255;-53
2024/01/13 04:48:19;;;;;;;2.93;2.10;;;3.20;99.90;;;;;;5069336;28;20290;-50
2024/01/13 04:50:45;;;;;;;2.93;1.90;;;3.20;99.90;;;;;;5081199;28;20212;-48
2024/01/13 04:53:12;;;;;;;2.07;1.77;;;3.10;99.90;;;;;;5053121;28;20194;-49
2024/01/13 04:55:39;;;;;;;4.20;2.10;;;3.10;99.90;;;;;;5088357;28;20206;-49
2024/01/13 04:58:07;;;;;;;4.47;2.70;;;3.20;99.90;;;;;;5080071;28;20186;-50
2024/01/13 05:00:35;;;;;;;5.37;2.57;;;3.20;99.90;;;;;;5068829;28;20198;-51
2024/01/13 05:03:02;;;;;;;7.60;2.97;;;3.10;99.90;;;;;;5074735;28;20194;-52
2024/01/13 05:05:28;;;;;;;8.30;3.67;;;3.10;99.90;;;;;;5075665;28;20198;-52
2024/01/13 05:07:55;;;;;;;5.27;3.60;;;3.20;99.90;;;;;;5079309;28;20226;-53
2024/01/13 05:10:23;;;;;;;7.33;2.87;;;3.10;99.90;;;;;;5055112;28;20858;-49
2024/01/13 05:12:49;;;;;;;6.67;3.40;;;3.20;99.90;;;;;;5082319;28;20190;-49
2024/01/13 05:15:18;;;;;;;4.77;3.37;;;3.20;99.90;;;;;;5061105;28;21255;-49
2024/01/13 05:17:44;;;;;;;5.60;3.40;;;3.20;99.90;;;;;;5078764;28;20198;-47
2024/01/13 05:20:12;;;;;;;11.00;3.17;;;3.10;99.90;;;;;;5076880;28;20197;-51
2024/01/13 05:22:39;;;;;;;4.10;3.20;;;3.10;99.90;;;;;;5075199;28;20209;-50
2024/01/13 05:25:07;;;;;;;4.37;3.07;;;3.10;99.90;;;;;;5051257;28;20206;-52
2024/01/13 05:27:34;;;;;;;4.63;2.80;;;3.20;99.90;;;;;;5076419;28;20670;-52
2024/01/13 05:30:01;;;;;;;2.93;2.40;;;3.10;99.90;;;;;;5074101;28;20197;-51
2024/01/13 05:32:29;;;;;;;6.77;2.77;;;3.10;99.90;;;;;;5080486;28;20950;-52
2024/01/13 05:34:56;;;;;;;5.23;2.63;;;3.20;99.90;;;;;;5081385;28;20223;-52
2024/01/13 05:37:23;;;;;;;2.17;1.87;;;3.10;99.90;;;;;;5076489;28;20306;-52
2024/01/13 05:39:50;;;;;;;3.40;2.47;;;3.10;99.90;;;;;;5055541;28;20270;-49
2024/01/13 05:42:17;;;;;;;2.90;1.80;;;3.10;99.90;;;;;;5076597;28;20303;-49
2024/01/13 05:44:44;;;;;;;2.30;1.80;;;3.10;99.90;;;;;;5079897;28;20259;-50
2024/01/13 05:47:13;;;;;;;4.60;2.20;;;3.10;99.90;;;;;;5079996;28;20213;-53
2024/01/13 05:49:41;;;;;;;4.20;2.33;;;3.10;99.90;;;;;;5085835;28;20210;-50
2024/01/13 05:52:10;;;;;;;2.73;2.03;;;3.10;99.90;;;;;;5075562;28;20202;-49
2024/01/13 05:54:38;;;;;;;3.13;2.20;;;3.10;99.90;;;;;;5047948;28;20758;-51
2024/01/13 05:57:05;;;;;;;3.40;2.27;;;3.10;99.90;;;;;;5076430;28;20214;-52
2024/01/13 05:59:32;;;;;;;6.60;2.80;;;3.10;99.90;;;;;;5081221;28;20854;-48
2024/01/13 06:01:58;;;;;;;3.80;2.20;;;3.00;99.90;;;;;;5079621;28;20204;-50
2024/01/13 06:04:25;;;;;;;3.70;2.70;;;3.10;99.90;;;;;;5083149;28;20255;-49
2024/01/13 06:06:53;;;;;;;4.93;2.73;;;3.10;99.90;;;;;;5077848;28;20218;-49
2024/01/13 06:09:20;;;;;;;4.53;2.63;;;3.10;99.90;;;;;;5076761;28;20190;-51
2024/01/13 06:11:47;;;;;;;3.80;2.57;;;3.10;99.90;;;;;;5049026;28;20205;-52
2024/01/13 06:14:14;;;;;;;4.13;2.77;;;3.10;99.90;;;;;;5081144;28;20198;-48
2024/01/13 06:16:40;;;;;;;3.50;2.57;;;3.10;99.90;;;;;;5081789;28;20894;-52
2024/01/13 06:19:07;;;;;;;4.57;2.83;;;3.00;99.90;;;;;;5079755;28;20202;-50
2024/01/13 06:21:42;;;;;;;4.57;3.00;;;3.10;99.90;;;;;;5077760;28;20252;-53
2024/01/13 06:24:11;;;;;;;5.03;3.03;;;3.00;99.90;;;;;;5072887;28;20292;-51
2024/01/13 06:26:39;;;;;;;5.30;2.90;;;3.00;99.90;;;;;;5048994;28;20214;-52
2024/01/13 06:29:06;;;;;;;5.80;3.03;;;3.00;99.90;;;;;;5081733;28;20260;-50
2024/01/13 06:31:33;;;;;;;7.77;3.67;;;3.00;99.90;;;;;;5083716;28;20194;-50
2024/01/13 06:34:00;;;;;;;5.60;3.40;;;3.00;99.90;;;;;;5081122;28;20202;-48
2024/01/13 06:36:26;;;;;;;3.80;3.00;;;3.00;99.90;;;;;;5073564;28;20226;-49
2024/01/13 06:38:53;;;;;;;7.40;3.67;;;3.00;99.90;;;;;;5080543;28;20201;-48
2024/01/13 06:41:21;;;;;;;4.63;3.23;;;3.10;99.90;;;;;;5069905;28;20248;-49
2024/01/13 06:43:48;;;;;;;4.23;2.70;;;3.10;99.90;;;;;;5055782;28;20233;-51
2024/01/13 06:46:15;;;;;;;5.03;3.07;;;3.00;99.90;;;;;;5081100;28;20529;-53
2024/01/13 06:48:42;;;;;;;2.90;2.17;;;3.00;99.90;;;;;;5079652;28;20242;-49
2024/01/13 06:51:09;;;;;;;3.87;3.10;;;3.00;99.90;;;;;;5080554;28;20218;-50
2024/01/13 06:53:36;;;;;;;3.77;3.10;;;3.00;99.90;;;;;;5068591;28;20220;-50
2024/01/13 06:56:03;;;;;;;4.27;2.87;;;3.00;99.90;;;;;;5080724;28;20274;-50
2024/01/13 06:58:31;;;;;;;3.77;2.80;;;3.00;99.90;;;;;;5055793;28;20195;-50
2024/01/13 07:00:59;;;;;;;4.53;2.83;;;3.00;99.90;;;;;;5075613;28;20587;-52
2024/01/13 07:03:25;;;;;;;4.13;3.20;;;3.00;99.90;;;;;;5084859;28;20198;-47
2024/01/13 07:05:52;;;;;;;4.87;3.17;;;2.90;99.90;;;;;;5066637;28;20657;-49
2024/01/13 07:08:19;;;;;;;5.30;3.30;;;2.90;99.90;;;;;;5069517;28;20224;-47
2024/01/13 07:10:48;;;;;;;7.50;3.90;;;3.00;99.90;;;;;;5079055;28;20228;-52
2024/01/13 07:13:15;;;;;;;7.17;3.97;;;3.00;99.90;;;;;;5080917;28;20205;-48
2024/01/13 07:15:43;;;;;;;5.97;4.27;;;3.00;99.90;;;;;;5054319;28;20217;-53
2024/01/13 07:18:10;;;;;;;4.93;3.20;;;3.00;99.90;;;;;;5078162;28;20202;-50
2024/01/13 07:20:37;;;;;;;3.97;3.47;;;3.00;99.90;;;;;;5067991;28;20279;-52
2024/01/13 07:23:04;;;;;;;5.63;3.40;;;3.00;99.90;;;;;;5078186;28;20190;-46
2024/01/13 07:25:31;;;;;;;5.40;3.57;;;3.00;99.90;;;;;;5077388;28;20279;-47
2024/01/13 07:27:58;;;;;;;9.70;3.17;;;3.00;99.90;;;;;;5072693;28;20221;-49
2024/01/13 07:30:25;;;;;;;3.83;3.27;;;3.00;99.90;;;;;;5054243;28;20209;-49
2024/01/13 07:32:53;;;;;;;4.73;4.27;;;3.00;99.90;;;;;;5077022;28;20225;-51
2024/01/13 07:35:20;;;;;;;6.07;3.23;;;3.00;99.90;;;;;;5076119;28;20254;-48
2024/01/13 07:37:46;;;;;;;4.43;3.23;;;3.00;99.90;;;;;;5072863;28;20256;-52
2024/01/13 07:40:13;;;;;;;4.73;3.07;;;3.00;99.90;;;;;;5074336;28;20980;-48
2024/01/13 07:42:40;;;;;;;3.57;2.60;;;3.00;99.90;;;;;;5076195;28;20284;-52
2024/01/13 07:45:08;;;;;;;4.00;2.60;;;3.00;99.90;;;;;;5051280;28;20198;-48
2024/01/13 07:47:34;;;;;;;4.90;2.67;;;3.00;99.90;;;;;;5076477;28;20214;-51
2024/01/13 07:50:03;;;;;;;4.20;2.70;;;3.10;99.90;;;;;;5075491;28;20213;-50
2024/01/13 07:52:30;;;;;;;3.30;2.17;;;3.10;99.90;;;;;;5069821;28;20198;-49
2024/01/13 07:54:57;;;;;;;5.33;3.93;;;3.10;99.90;;;;;;5071635;28;20201;-49
2024/01/13 07:57:26;;;;;;;3.90;2.90;;;3.00;99.90;;;;;;5077987;28;20221;-46
2024/01/13 07:59:53;;;;;;;3.83;3.27;;;3.10;99.90;;;;;;5055398;28;20241;-51
2024/01/13 08:02:19;;;;;;;3.57;2.50;;;3.10;99.90;;;;;;5072099;28;20198;-48
2024/01/13 08:04:46;;;;;;;5.70;3.80;;;3.10;99.90;;;;;;5079887;28;20226;-51
2024/01/13 08:07:14;;;;;;;3.73;2.60;;;3.10;99.90;;;;;;5072632;28;20244;-49
2024/01/13 08:09:41;;;;;;;4.90;3.03;;;3.10;99.90;;;;;;5072806;28;20660;-51
2024/01/13 08:12:08;;;;;;;4.43;2.43;;;3.10;99.90;;;;;;5073464;28;20944;-47
2024/01/13 08:14:35;;;;;;;4.93;2.30;;;3.10;99.90;;;;;;5069055;28;20261;-48
2024/01/13 08:17:02;;;;;;;2.20;1.93;;;3.10;99.90;;;;;;5043802;28;20241;-48
2024/01/13 08:19:29;;;;;;;3.87;1.97;;;3.20;99.90;;;;;;5082727;28;20190;-46
2024/01/13 08:21:55;;;;;;;2.87;2.00;;;3.10;99.90;;;;;;5069923;28;20289;-47
2024/01/13 08:24:24;;;;;;;2.07;1.40;;;3.10;99.90;;;;;;5083549;28;20201;-48
2024/01/13 08:26:52;;;;;;;1.40;1.30;;;3.10;99.90;;;;;;5072319;28;20218;-48
2024/01/13 08:29:19;;;;;;;2.90;2.10;;;3.10;99.90;;;;;;5065767;28;20260;-51
2024/01/13 08:31:49;;;;;;;4.00;2.20;;;3.10;99.90;;;;;;5047357;28;20282;-50
2024/01/13 08:34:16;;;;;;;2.27;1.80;;;3.10;99.90;;;;;;5076849;28;20814;-49
2024/01/13 08:36:43;;;;;;;2.13;1.93;;;3.10;99.90;;;;;;5082932;28;20267;-47
2024/01/13 08:39:10;;;;;;;2.80;2.37;;;3.10;99.90;;;;;;5063819;28;20560;-50
2024/01/13 08:41:38;;;;;;;3.93;2.37;;;3.10;99.90;;;;;;5074750;28;20354;-49
2024/01/13 08:44:05;;;;;;;3.07;2.40;;;3.10;99.90;;;;;;5070416;28;20285;-51
2024/01/13 08:46:32;;;;;;;3.17;2.63;;;3.10;99.90;;;;;;5046986;28;21403;-49
2024/01/13 08:48:59;;;;;;;4.73;2.70;;;3.10;99.90;;;;;;5080756;28;20214;-51
2024/01/13 08:51:26;;;;;;;3.93;2.20;;;3.10;99.90;;;;;;5079153;28;20190;-49
2024/01/13 08:53:53;;;;;;;1.73;1.63;;;3.20;99.90;;;;;;5076355;28;20617;-49
2024/01/13 08:56:20;;;;;;;2.40;2.20;;;3.20;99.90;;;;;;5060862;28;20283;-47
2024/01/13 08:58:48;;;;;;;2.87;2.53;;;3.10;99.90;;;;;;5071908;28;20243;-48
2024/01/13 09:01:15;;;;;;;3.87;2.13;;;3.20;99.90;;;;;;5045087;28;20227;-52
2024/01/13 09:03:42;;;;;;;3.10;1.27;;;3.20;99.90;;;;;;5079567;28;20322;-50
2024/01/13 09:06:09;;;;;;;2.00;1.80;;;3.20;99.90;;;;;;5079407;28;20241;-50
2024/01/13 09:08:36;;;;;;;1.80;1.70;;;3.20;99.90;;;;;;5072953;28;21959;-49
2024/01/13 09:11:03;;;;;;;2.10;1.60;;;3.30;99.90;;;;;;5074792;28;20263;-48
2024/01/13 09:13:30;;;;;;;2.03;1.70;;;3.30;99.90;;;;;;5061543;28;20212;-46
2024/01/13 09:15:59;;;;;;;2.57;1.60;;;3.30;99.90;;;;;;5075704;28;20198;-46
2024/01/13 09:18:26;;;;;;;1.80;1.57;;;3.30;99.90;;;;;;5047869;28;20197;-48
2024/01/13 09:20:53;;;;;;;3.67;1.87;;;3.30;99.90;;;;;;5081572;28;20664;-47
2024/01/13 09:23:19;;;;;;;2.20;1.77;;;3.30;99.90;;;;;;5064897;28;22958;-51
2024/01/13 09:25:47;;;;;;;4.03;2.30;;;3.30;99.90;;;;;;5079653;28;20194;-49
2024/01/13 09:28:14;;;;;;;2.33;2.13;;;3.40;99.90;;;;;;5063892;28;20303;-50
2024/01/13 09:30:42;;;;;;;3.47;2.40;;;3.30;99.90;;;;;;5080667;28;20212;-46
2024/01/13 09:33:11;;;;;;;2.87;2.20;;;3.30;99.90;;;;;;5059775;28;20565;-51
2024/01/13 09:35:38;;;;;;;2.13;1.53;;;3.40;99.90;;;;;;5073610;28;20614;-50
2024/01/13 09:38:04;;;;;;;2.30;1.83;;;3.40;99.90;;;;;;5074047;28;20846;-49
2024/01/13 09:40:31;;;;;;;2.40;2.20;;;3.30;99.90;;;;;;5065057;28;20186;-48
2024/01/13 09:43:10;;;;;;;4.63;1.90;;;3.40;99.90;;;;;;5077350;28;20229;-48
2024/01/13 09:45:39;;;;;;;2.10;1.73;;;3.40;99.90;;;;;;5074059;28;20202;-46
2024/01/13 09:48:09;;;;;;;1.70;1.60;;;3.40;99.90;;;;;;5060532;28;20222;-50
2024/01/13 09:50:39;;;;;;;2.60;1.60;;;3.30;99.90;;;;;;5059711;28;20263;-50
2024/01/13 09:53:08;;;;;;;1.73;1.60;;;3.40;99.90;;;;;;5073614;28;20956;-47
2024/01/13 09:55:37;;;;;;;2.73;2.43;;;3.40;99.90;;;;;;5058853;28;20229;-52
2024/01/13 09:58:05;;;;;;;3.30;1.73;;;3.40;99.90;;;;;;5071834;28;20263;-50
2024/01/13 10:11:19;;;;;;;2.87;1.83;;;3.40;99.90;;;;;;5109265;27;20600;-48
2024/01/13 10:13:59;;;;;;;2.47;2.27;;;3.90;99.90;;;;;;5079855;28;20608;-50
2024/01/13 10:16:27;;;;;;;1.87;1.77;;;3.70;99.90;;;;;;5064387;28;20185;-48
2024/01/13 10:18:54;;;;;;;3.67;2.13;;;3.70;99.90;;;;;;5105504;22;20236;-87
2024/01/13 10:21:22;;;;;;;2.53;2.00;;;3.60;99.90;;;;;;5075597;28;20209;-87
2024/01/13 10:23:49;;;;;;;2.27;2.07;;;3.60;99.90;;;;;;5068866;28;20222;-86
2024/01/13 10:26:16;;;;;;;2.27;2.00;;;3.60;99.90;;;;;;5065657;28;20736;-87
2024/01/13 10:28:45;;;;;;;2.47;2.27;;;3.60;99.90;;;;;;5060617;28;20827;-87
2024/01/13 10:31:12;;;;;;;2.77;1.60;;;3.60;99.90;;;;;;5050750;28;20523;-87
2024/01/13 10:33:40;;;;;;;1.80;1.70;;;3.60;99.90;;;;;;5047493;28;20697;-86
2024/01/13 10:36:10;;;;;;;3.77;2.17;;;3.60;99.90;;;;;;5064377;28;20285;-84
2024/01/13 10:38:39;;;;;;;3.17;2.30;;;3.60;99.90;;;;;;5053519;28;21043;-86
2024/01/13 10:41:06;;;;;;;2.50;2.20;;;3.60;99.90;;;;;;5059218;28;20218;-84
2024/01/13 10:43:35;;;;;;;2.80;2.33;;;3.60;99.90;;;;;;5075366;28;20304;-87
2024/01/13 10:46:09;;;;;;;2.60;2.40;;;3.60;99.90;;;;;;5071163;28;20210;-84
2024/01/13 10:48:41;;;;;;;2.90;2.23;;;3.70;99.90;;;;;;5047980;28;20206;-87
2024/01/13 10:51:18;;;;;;;2.67;2.33;;;3.60;99.90;;;;;;5082187;28;20205;-87
2024/01/13 10:53:47;;;;;;;1.90;1.80;;;3.60;99.90;;;;;;5055242;28;20705;-86
2024/01/13 10:56:16;;;;;;;3.50;2.77;;;3.70;99.90;;;;;;5059895;28;20255;-86
2024/01/13 10:58:46;;;;;;;5.63;2.77;;;3.60;99.90;;;;;;5084766;28;20205;-89
2024/01/13 11:01:15;;;;;;;4.80;2.47;;;3.70;99.90;;;;;;5050020;28;20272;-85
2024/01/13 11:03:43;;;;;;;3.53;2.67;;;3.70;99.90;;;;;;5062018;28;20283;-85
2024/01/13 11:06:10;;;;;;;2.90;2.70;;;3.70;99.90;;;;;;5066560;28;20195;-85
2024/01/13 11:08:37;;;;;;;2.23;2.03;;;3.80;99.90;;;;;;5057220;28;20677;-85
2024/01/13 11:11:06;;;;;;;2.80;2.50;;;3.80;99.90;;;;;;5076320;28;20191;-85
2024/01/13 11:13:39;;;;;;;2.90;2.60;;;3.70;99.90;;;;;;5047982;28;20304;-86
2024/01/13 11:16:09;;;;;;;2.43;2.23;;;3.70;99.90;;;;;;5068067;28;20201;-89
2024/01/13 11:18:40;;;;;;;5.63;2.37;;;3.70;99.90;;;;;;5057297;28;20210;-87
2024/01/13 11:21:10;;;;;;;4.87;2.60;;;3.80;99.90;;;;;;5051207;28;20236;-85
2024/01/13 11:23:38;;;;;;;1.90;1.80;;;3.80;99.90;;;;;;5049416;28;20231;-85
2024/01/13 11:26:05;;;;;;;2.10;1.90;;;3.70;99.90;;;;;;5066690;28;20198;-85
2024/01/13 11:28:48;;;;;;;1.80;1.70;;;3.70;99.90;;;;;;5048304;28;20268;-85
2024/01/13 11:31:37;;;;;;;3.53;2.13;;;3.80;99.90;;;;;;5064138;28;20662;-84
2024/01/13 11:34:07;;;;;;;2.40;2.17;;;3.80;99.90;;;;;;5060971;28;20720;-85
2024/01/13 11:36:35;;;;;;;1.70;1.60;;;3.80;99.90;;;;;;5065023;28;20187;-85
2024/01/13 11:39:03;;;;;;;2.40;2.20;;;3.80;99.90;;;;;;5049185;28;20195;-85
2024/01/13 11:41:40;;;;;;;2.60;1.70;;;3.80;99.90;;;;;;5043219;28;20206;-85
2024/01/13 11:44:08;;;;;;;1.83;1.50;;;3.90;99.90;;;;;;5040109;28;20230;-84
2024/01/13 11:46:38;;;;;;;2.33;1.73;;;3.90;99.90;;;;;;5066226;28;20210;-85
2024/01/13 11:49:06;;;;;;;1.83;1.73;;;3.80;99.90;;;;;;5047153;28;20264;-85
2024/01/13 11:51:56;;;;;;;1.87;1.63;;;3.80;99.90;;;;;;5048891;28;20202;-85
2024/01/13 11:54:23;;;;;;;1.53;1.43;;;3.80;99.90;;;;;;5038462;28;20307;-85
2024/01/13 11:56:51;;;;;;;2.30;2.10;;;3.90;99.90;;;;;;5070811;28;20207;-85
2024/01/13 11:59:18;;;;;;;2.00;1.23;;;3.90;99.90;;;;;;5065253;28;20280;-85
2024/01/13 12:01:45;;;;;;;1.70;1.60;;;3.90;99.90;;;;;;5067820;28;20213;-85
2024/01/13 12:04:14;;;;;;;3.03;2.03;;;3.90;99.90;;;;;;5045445;28;20219;-85
2024/01/13 12:06:43;;;;;;;2.20;2.00;;;3.90;99.90;;;;;;5053344;28;20199;-85
2024/01/13 12:09:11;;;;;;;1.80;1.60;;;3.90;99.90;;;;;;5054902;28;20190;-87
2024/01/13 12:11:38;;;;;;;2.80;2.10;;;3.90;99.90;;;;;;5051647;28;20205;-86
2024/01/13 12:14:05;;;;;;;3.57;2.43;;;4.00;99.90;;;;;;5045998;28;20221;-86
2024/01/13 12:16:35;;;;;;;2.80;2.60;;;3.90;99.90;;;;;;5055647;28;20202;-86
2024/01/13 12:19:03;;;;;;;3.73;2.80;;;4.00;99.90;;;;;;5050681;28;20231;-84
2024/01/13 12:21:37;;;;;;;2.53;2.30;;;4.00;99.90;;;;;;5035499;28;20238;-85
2024/01/13 12:24:04;;;;;;;5.17;2.37;;;4.00;99.90;;;;;;5067828;28;20299;-85
2024/01/13 12:26:32;;;;;;;2.60;2.40;;;4.10;99.90;;;;;;5051716;28;20199;-85
2024/01/13 12:29:00;;;;;;;4.70;2.53;;;4.00;99.90;;;;;;5046098;28;20630;-86
2024/01/13 12:31:27;;;;;;;2.83;2.63;;;4.00;99.90;;;;;;5048609;28;20729;-85
2024/01/13 12:33:54;;;;;;;3.23;2.50;;;4.00;99.90;;;;;;5052671;28;20273;-85
2024/01/13 12:36:23;;;;;;;4.90;3.20;;;4.10;99.90;;;;;;5046873;28;20194;-85
2024/01/13 12:38:52;;;;;;;3.43;2.37;;;4.10;99.90;;;;;;5053746;28;20248;-84
2024/01/13 12:41:19;;;;;;;2.73;2.20;;;4.20;99.90;;;;;;5050273;28;20207;-85
2024/01/13 12:43:46;;;;;;;3.53;2.73;;;4.10;99.90;;;;;;5052951;28;20226;-85
2024/01/13 12:46:13;;;;;;;3.30;2.63;;;4.10;99.90;;;;;;5048407;28;20205;-85
2024/01/13 12:48:40;;;;;;;3.43;3.13;;;4.10;99.90;;;;;;5049477;28;20203;-84
2024/01/13 12:51:11;;;;;;;4.23;3.10;;;4.20;99.90;;;;;;5045336;28;20195;-85
2024/01/13 12:53:40;;;;;;;3.10;2.80;;;4.20;99.90;;;;;;5053998;28;20225;-85
2024/01/13 12:56:08;;;;;;;3.57;3.23;;;4.20;99.90;;;;;;5066666;28;20198;-85
2024/01/13 12:58:36;;;;;;;3.83;3.10;;;4.20;99.90;;;;;;5054456;28;20264;-85
2024/01/13 13:01:04;;;;;;;3.93;3.10;;;4.30;99.90;;;;;;5041459;28;20237;-85
2024/01/13 13:03:31;;;;;;;4.90;3.03;;;4.30;99.90;;;;;;5050338;28;20244;-85
2024/01/13 13:05:58;;;;;;;3.57;3.10;;;4.30;99.90;;;;;;5038121;28;20210;-85
2024/01/13 13:08:25;;;;;;;4.87;3.17;;;4.30;99.90;;;;;;5047878;28;20190;-86
2024/01/13 13:10:52;;;;;;;4.97;3.43;;;4.30;99.90;;;;;;5061017;28;20191;-85